createdAt,value
2022-11-19T00:02:33.862Z,5.40
2022-11-19T00:06:35.396Z,5.63
2022-11-19T00:10:38.650Z,6.00
2022-11-19T00:14:40.444Z,6.03
2022-11-19T00:18:41.970Z,5.93
2022-11-19T00:22:44.936Z,7.03
2022-11-19T00:26:46.704Z,6.32
2022-11-19T00:30:48.899Z,6.13
2022-11-19T00:34:50.592Z,6.40
2022-11-19T00:38:52.053Z,6.43
2022-11-19T00:43:12.303Z,6.43
2022-11-19T00:47:13.857Z,5.95
2022-11-19T00:51:17.051Z,6.28
2022-11-19T00:55:18.739Z,6.25
2022-11-19T00:59:20.654Z,7.00
2022-11-19T01:03:23.149Z,6.70
2022-11-19T01:07:24.858Z,7.47
2022-11-19T01:11:29.147Z,6.10
2022-11-19T01:15:30.597Z,6.40
2022-11-19T01:19:32.265Z,7.00
2022-11-19T01:23:34.036Z,6.00
2022-11-19T01:27:35.683Z,6.50
2022-11-19T01:31:38.115Z,6.55
2022-11-19T01:35:39.744Z,6.75
2022-11-19T01:39:41.266Z,7.10
2022-11-19T01:43:48.232Z,6.78
2022-11-19T01:47:58.564Z,6.50
2022-11-19T01:52:03.148Z,6.53
2022-11-19T01:56:08.175Z,6.82
2022-11-19T02:00:10.593Z,7.25
2022-11-19T02:04:14.147Z,6.35
2022-11-19T02:08:39.210Z,5.72
2022-11-19T02:13:14.378Z,6.03
2022-11-19T02:17:34.726Z,6.07
2022-11-19T02:21:52.397Z,6.03
2022-11-19T02:26:03.183Z,6.28
2022-11-19T02:30:06.603Z,7.57
2022-11-19T02:34:16.372Z,6.72
2022-11-19T02:38:32.198Z,7.57
2022-11-19T02:42:51.855Z,7.00
2022-11-19T02:51:00.195Z,6.50
2022-11-19T02:55:02.021Z,6.40
2022-11-19T02:59:22.597Z,6.15
2022-11-19T03:03:42.640Z,5.63
2022-11-19T03:07:44.296Z,6.55
2022-11-19T03:11:57.672Z,6.65
2022-11-19T03:16:19.991Z,6.70
2022-11-19T03:20:45.466Z,6.05
2022-11-19T03:24:57.681Z,5.93
2022-11-19T03:29:03.866Z,6.43
2022-11-19T03:33:21.117Z,7.03
2022-11-19T03:37:25.220Z,5.65
2022-11-19T03:41:28.759Z,5.57
2022-11-19T03:45:35.768Z,5.72
2022-11-19T03:53:41.978Z,6.38
2022-11-19T03:57:44.102Z,6.82
2022-11-19T04:01:48.932Z,6.75
2022-11-19T04:05:50.475Z,7.03
2022-11-19T04:09:52.274Z,6.43
2022-11-19T04:13:53.888Z,6.70
2022-11-19T04:17:55.467Z,6.18
2022-11-19T04:21:57.176Z,7.30
2022-11-19T04:25:59.053Z,6.32
2022-11-19T04:30:01.895Z,6.60
2022-11-19T04:34:03.372Z,5.78
2022-11-19T04:38:04.847Z,6.45
2022-11-19T04:42:06.320Z,6.30
2022-11-19T04:46:07.855Z,6.00
2022-11-19T04:50:09.744Z,6.28
2022-11-19T04:54:12.976Z,6.47
2022-11-19T04:58:14.570Z,6.82
2022-11-19T05:02:16.466Z,6.22
2022-11-19T05:06:18.262Z,7.00
2022-11-19T05:10:20.041Z,6.22
2022-11-19T05:14:23.669Z,6.15
2022-11-19T05:18:27.581Z,5.82
2022-11-19T05:22:29.003Z,6.32
2022-11-19T05:26:30.615Z,6.55
2022-11-19T05:30:32.283Z,6.53
2022-11-19T05:34:33.860Z,5.50
2022-11-19T05:38:35.490Z,6.38
2022-11-19T05:42:37.132Z,6.25
2022-11-19T05:46:38.828Z,5.93
2022-11-19T05:50:43.460Z,6.20
2022-11-19T05:54:45.013Z,5.90
2022-11-19T05:58:46.711Z,5.60
2022-11-19T06:02:48.277Z,7.07
2022-11-19T06:06:49.877Z,6.18
2022-11-19T06:10:51.422Z,7.47
2022-11-19T06:14:53.253Z,6.47
2022-11-19T06:18:55.074Z,6.53
2022-11-19T06:22:56.695Z,6.55
2022-11-19T06:26:58.362Z,5.93
2022-11-19T06:31:00.039Z,6.90
2022-11-19T06:35:01.661Z,6.18
2022-11-19T06:39:03.656Z,5.28
2022-11-19T06:43:05.179Z,5.57
2022-11-19T06:47:08.559Z,6.38
2022-11-19T06:51:12.188Z,6.45
2022-11-19T06:55:14.764Z,5.38
2022-11-19T06:59:16.502Z,6.10
2022-11-19T07:03:18.160Z,5.80
2022-11-19T07:07:21.008Z,6.20
2022-11-19T07:11:28.466Z,6.88
2022-11-19T07:15:30.078Z,6.07
2022-11-19T07:19:37.183Z,6.72
2022-11-19T07:23:39.733Z,7.38
2022-11-19T07:27:43.829Z,8.18
2022-11-19T07:31:50.232Z,7.65
2022-11-19T07:35:51.754Z,8.23
2022-11-19T07:39:53.624Z,7.30
2022-11-19T07:43:55.259Z,7.45
2022-11-19T07:47:56.735Z,7.10
2022-11-19T07:51:58.877Z,8.57
2022-11-19T07:56:01.022Z,7.20
2022-11-19T08:00:04.543Z,6.82
2022-11-19T08:04:13.970Z,6.47
2022-11-19T08:08:16.000Z,8.93
2022-11-19T08:12:17.811Z,7.20
2022-11-19T08:16:38.054Z,8.27
2022-11-19T08:20:44.406Z,8.88
2022-11-19T08:24:46.135Z,8.35
2022-11-19T08:28:49.646Z,8.57
2022-11-19T08:32:54.752Z,7.53
2022-11-19T08:36:57.297Z,8.65
2022-11-19T08:41:17.946Z,9.52
2022-11-19T08:45:20.906Z,8.18
2022-11-19T08:49:23.285Z,8.23
2022-11-19T08:53:25.037Z,9.13
2022-11-19T08:57:26.676Z,8.95
2022-11-19T09:01:28.339Z,7.80
2022-11-19T09:05:30.016Z,8.45
2022-11-19T09:09:31.734Z,9.15
2022-11-19T09:13:33.448Z,10.45
2022-11-19T09:17:35.984Z,10.05
2022-11-19T09:21:38.285Z,10.32
2022-11-19T09:25:39.909Z,10.40
2022-11-19T09:29:41.623Z,9.05
2022-11-19T09:33:46.370Z,11.27
2022-11-19T09:37:48.045Z,9.48
2022-11-19T09:42:02.033Z,9.73
2022-11-19T09:46:08.293Z,10.20
2022-11-19T09:50:19.829Z,11.90
2022-11-19T09:54:23.298Z,12.07
2022-11-19T09:58:34.654Z,11.40
2022-11-19T10:02:36.221Z,10.32
2022-11-19T10:06:48.695Z,11.13
2022-11-19T10:11:08.547Z,11.27
2022-11-19T10:15:13.149Z,11.73
2022-11-19T10:19:40.078Z,11.73
2022-11-19T10:23:49.135Z,11.95
2022-11-19T10:28:03.654Z,12.38
2022-11-19T10:32:26.162Z,10.63
2022-11-19T10:36:34.348Z,11.18
2022-11-19T10:40:50.558Z,11.93
2022-11-19T10:45:16.368Z,11.15
2022-11-19T10:49:18.644Z,12.05
2022-11-19T10:53:32.474Z,12.27
2022-11-19T10:57:34.495Z,12.15
2022-11-19T11:01:40.760Z,10.15
2022-11-19T11:05:57.227Z,11.02
2022-11-19T11:09:59.028Z,9.65
2022-11-19T11:14:21.909Z,9.57
2022-11-19T11:18:29.295Z,9.10
2022-11-19T11:22:31.907Z,9.20
2022-11-19T11:26:38.564Z,8.88
2022-11-19T11:30:53.951Z,8.65
2022-11-19T11:34:55.650Z,8.38
2022-11-19T11:39:00.367Z,7.25
2022-11-19T11:43:01.977Z,6.20
2022-11-19T11:47:03.548Z,6.20
2022-11-19T11:51:05.410Z,6.25
2022-11-19T11:55:27.447Z,5.88
2022-11-19T11:59:31.768Z,5.45
2022-11-19T12:03:34.512Z,6.15
2022-11-19T12:07:52.309Z,6.78
2022-11-19T12:12:08.783Z,7.07
2022-11-19T12:16:23.619Z,6.43
2022-11-19T12:20:43.511Z,6.10
2022-11-19T12:25:07.296Z,6.72
2022-11-19T12:29:33.707Z,5.97
2022-11-19T12:33:53.904Z,6.47
2022-11-19T12:38:21.116Z,5.80
2022-11-19T12:42:38.002Z,5.57
2022-11-19T12:46:45.488Z,5.63
2022-11-19T12:51:06.196Z,5.78
2022-11-19T12:55:22.067Z,5.18
2022-11-19T13:00:00.444Z,4.30
2022-11-19T13:04:18.491Z,2.80
2022-11-19T13:08:32.360Z,3.78
2022-11-19T13:12:41.620Z,3.28
2022-11-19T13:16:44.493Z,4.15
2022-11-19T13:21:13.581Z,5.43
2022-11-19T13:25:26.831Z,4.43
2022-11-19T13:29:50.375Z,4.65
2022-11-19T13:34:37.444Z,5.05
2022-11-19T13:38:54.955Z,4.78
2022-11-19T13:43:32.553Z,4.30
2022-11-19T13:48:22.055Z,4.55
2022-11-19T13:52:32.343Z,4.05
2022-11-19T13:56:41.938Z,4.65
2022-11-19T14:01:12.935Z,3.97
2022-11-19T14:09:38.776Z,3.90
2022-11-19T14:14:29.688Z,4.50
2022-11-19T14:18:54.776Z,4.28
2022-11-19T14:23:17.848Z,4.18
2022-11-19T14:27:22.588Z,3.90
2022-11-19T14:31:26.241Z,4.63
2022-11-19T14:35:31.536Z,4.18
2022-11-19T14:39:42.312Z,3.95
2022-11-19T14:44:11.064Z,3.72
2022-11-19T14:48:12.991Z,4.50
2022-11-19T14:52:21.532Z,4.47
2022-11-19T14:56:23.720Z,4.70
2022-11-19T15:00:45.279Z,4.15
2022-11-19T15:05:13.150Z,5.28
2022-11-19T15:09:53.465Z,5.43
2022-11-19T15:15:11.876Z,5.32
2022-11-19T15:19:23.671Z,5.90
2022-11-19T15:23:28.455Z,5.97
2022-11-19T15:27:47.218Z,5.47
2022-11-19T15:32:15.761Z,5.10
2022-11-19T15:36:30.188Z,4.97
2022-11-19T15:40:34.103Z,5.63
2022-11-19T15:44:57.033Z,6.15
2022-11-19T15:49:11.261Z,5.20
2022-11-19T15:53:17.546Z,5.75
2022-11-19T15:57:26.316Z,6.07
2022-11-19T16:01:32.486Z,6.03
2022-11-19T16:05:34.239Z,5.38
2022-11-19T16:09:36.949Z,5.60
2022-11-19T16:13:57.428Z,6.07
2022-11-19T16:18:07.011Z,6.03
2022-11-19T16:22:10.243Z,6.88
2022-11-19T16:31:08.784Z,8.02
2022-11-19T16:35:33.626Z,6.90
2022-11-19T16:39:36.927Z,7.78
2022-11-19T16:43:45.003Z,8.77
2022-11-19T16:52:41.648Z,20.98
2022-11-19T16:56:47.571Z,40.88
2022-11-19T17:00:55.697Z,24.80
2022-11-19T17:05:12.566Z,22.88
2022-11-19T17:09:41.611Z,16.98
2022-11-19T17:13:45.768Z,26.55
2022-11-19T17:17:47.560Z,18.60
2022-11-19T17:21:59.066Z,15.65
2022-11-19T17:26:04.178Z,15.77
2022-11-19T17:30:14.652Z,13.25
2022-11-19T17:34:26.235Z,13.90
2022-11-19T17:38:30.587Z,15.52
2022-11-19T17:42:50.594Z,13.82
2022-11-19T17:46:52.495Z,12.63
2022-11-19T17:50:54.609Z,13.20
2022-11-19T17:55:13.963Z,15.85
2022-11-19T18:03:17.715Z,14.63
2022-11-19T18:07:19.324Z,14.88
2022-11-19T18:11:23.798Z,13.77
2022-11-19T18:15:25.465Z,14.93
2022-11-19T18:19:28.786Z,13.85
2022-11-19T18:23:30.308Z,14.65
2022-11-19T18:27:32.037Z,14.15
2022-11-19T18:31:37.204Z,14.60
2022-11-19T18:35:38.751Z,15.23
2022-11-19T18:39:43.570Z,16.10
2022-11-19T18:44:05.130Z,16.40
2022-11-19T18:48:09.056Z,14.30
2022-11-19T18:52:16.223Z,14.30
2022-11-19T18:56:25.391Z,15.85
2022-11-19T19:00:26.904Z,14.70
2022-11-19T19:04:28.641Z,13.05
2022-11-19T19:08:35.980Z,14.38
2022-11-19T19:12:37.804Z,14.77
2022-11-19T19:16:41.023Z,13.38
2022-11-19T19:20:42.555Z,14.35
2022-11-19T19:24:44.551Z,13.63
2022-11-19T19:28:51.813Z,15.05
2022-11-19T19:33:02.253Z,15.45
2022-11-19T19:37:08.068Z,14.48
2022-11-19T19:41:15.465Z,14.50
2022-11-19T19:45:17.236Z,13.88
2022-11-19T19:49:19.450Z,14.75
2022-11-19T19:53:22.007Z,13.52
2022-11-19T19:57:23.764Z,14.38
2022-11-19T20:01:28.391Z,15.45
2022-11-19T20:05:30.041Z,13.85
2022-11-19T20:09:32.204Z,14.00
2022-11-19T20:13:33.866Z,13.85
2022-11-19T20:17:35.499Z,13.80
2022-11-19T20:21:37.279Z,15.60
2022-11-19T20:25:39.065Z,15.55
2022-11-19T20:29:40.745Z,13.05
2022-11-19T20:33:44.742Z,14.13
2022-11-19T20:37:46.511Z,14.50
2022-11-19T20:42:06.824Z,13.45
2022-11-19T20:46:11.034Z,11.95
2022-11-19T20:50:12.906Z,13.10
2022-11-19T20:54:15.377Z,12.52
2022-11-19T20:58:17.240Z,13.57
2022-11-19T21:02:19.144Z,12.38
2022-11-19T21:06:21.939Z,11.52
2022-11-19T21:10:23.630Z,12.82
2022-11-19T21:14:27.435Z,12.85
2022-11-19T21:18:33.736Z,12.15
2022-11-19T21:22:38.070Z,12.63
2022-11-19T21:26:39.797Z,11.82
2022-11-19T21:30:41.422Z,11.55
2022-11-19T21:34:43.009Z,11.35
2022-11-19T21:38:44.677Z,12.55
2022-11-19T21:42:46.309Z,12.05
2022-11-19T21:46:47.947Z,12.20
2022-11-19T21:50:49.677Z,11.85
2022-11-19T21:54:53.596Z,12.35
2022-11-19T21:58:55.208Z,14.13
2022-11-19T22:02:56.949Z,12.98
2022-11-19T22:06:58.534Z,12.27
2022-11-19T22:11:00.648Z,13.25
2022-11-19T22:15:02.945Z,13.90
2022-11-19T22:19:05.813Z,12.52
2022-11-19T22:23:07.481Z,12.50
2022-11-19T22:27:09.239Z,14.13
2022-11-19T22:31:11.121Z,14.05
2022-11-19T22:35:12.970Z,13.13
2022-11-19T22:39:14.595Z,14.85
2022-11-19T22:43:21.562Z,13.77
2022-11-19T22:47:24.419Z,12.23
2022-11-19T22:51:26.371Z,11.43
2022-11-19T22:55:29.174Z,10.95
2022-11-19T22:59:30.774Z,11.27
2022-11-19T23:03:33.173Z,11.20
2022-11-19T23:07:34.887Z,12.75
2022-11-19T23:11:55.245Z,11.55
2022-11-19T23:16:16.121Z,12.45
2022-11-19T23:20:17.723Z,11.30
2022-11-19T23:24:19.291Z,11.48
2022-11-19T23:28:20.848Z,11.82
2022-11-19T23:32:22.352Z,11.40
2022-11-19T23:36:27.006Z,11.07
2022-11-19T23:40:29.049Z,11.88
2022-11-19T23:44:30.649Z,12.20
2022-11-19T23:48:33.343Z,11.80
2022-11-19T23:52:35.558Z,11.43
2022-11-19T23:56:37.192Z,10.23
